createdAt,value
2019-05-22T00:01:41.998Z,88.30
2019-05-22T00:04:33.651Z,88.30
2019-05-22T00:07:11.198Z,88.20
2019-05-22T00:09:49.016Z,88.30
2019-05-22T00:12:25.372Z,88.50
2019-05-22T00:14:57.618Z,88.40
2019-05-22T00:17:37.448Z,88.40
2019-05-22T00:20:12.170Z,88.40
2019-05-22T00:22:47.346Z,87.90
2019-05-22T00:25:28.975Z,88.60
2019-05-22T00:28:06.206Z,88.50
2019-05-22T00:30:42.168Z,88.40
2019-05-22T00:33:18.492Z,88.50
2019-05-22T00:35:53.891Z,88.60
2019-05-22T00:38:26.775Z,88.50
2019-05-22T00:41:05.763Z,88.50
2019-05-22T00:43:43.791Z,88.20
2019-05-22T00:46:20.624Z,88.30
2019-05-22T00:48:55.001Z,88.40
2019-05-22T00:51:46.111Z,88.40
2019-05-22T00:54:34.860Z,88.40
2019-05-22T00:57:36.892Z,88.60
2019-05-22T01:00:34.817Z,88.60
2019-05-22T01:03:10.155Z,88.40
2019-05-22T01:05:43.491Z,88.40
2019-05-22T01:08:16.517Z,88.40
2019-05-22T01:10:53.318Z,88.60
2019-05-22T01:13:32.585Z,88.80
2019-05-22T01:16:07.500Z,89.60
2019-05-22T01:18:42.542Z,88.80
2019-05-22T01:21:24.601Z,88.60
2019-05-22T01:24:01.781Z,88.90
2019-05-22T01:26:35.901Z,88.80
2019-05-22T01:29:09.285Z,88.60
2019-05-22T01:31:51.550Z,88.60
2019-05-22T01:34:30.549Z,88.60
2019-05-22T01:37:10.131Z,88.60
2019-05-22T01:40:18.578Z,88.60
2019-05-22T01:42:53.727Z,89.50
2019-05-22T01:45:26.653Z,88.60
2019-05-22T01:48:08.610Z,88.60
2019-05-22T01:50:58.770Z,88.60
2019-05-22T01:53:38.625Z,88.60
2019-05-22T01:56:12.802Z,88.60
2019-05-22T01:58:45.650Z,88.60
2019-05-22T02:01:24.187Z,88.50
2019-05-22T02:03:58.792Z,88.50
2019-05-22T02:06:37.060Z,88.60
2019-05-22T02:09:30.908Z,88.40
2019-05-22T02:12:13.599Z,88.50
2019-05-22T02:14:48.337Z,88.40
2019-05-22T02:17:25.700Z,88.50
2019-05-22T02:19:58.123Z,88.60
2019-05-22T02:22:32.191Z,88.80
2019-05-22T02:25:05.298Z,88.60
2019-05-22T02:27:39.356Z,88.50
2019-05-22T02:30:16.376Z,88.50
2019-05-22T02:32:49.565Z,88.60
2019-05-22T02:35:21.770Z,88.70
2019-05-22T02:37:54.885Z,88.60
2019-05-22T02:40:28.418Z,88.60
2019-05-22T02:43:00.147Z,88.70
2019-05-22T02:45:33.276Z,88.60
2019-05-22T02:48:09.841Z,88.60
2019-05-22T02:50:42.350Z,88.60
2019-05-22T02:53:15.048Z,88.60
2019-05-22T02:55:48.778Z,88.40
2019-05-22T02:58:27.664Z,88.40
2019-05-22T03:01:02.707Z,88.30
2019-05-22T03:03:37.218Z,88.20
2019-05-22T03:06:13.408Z,88.30
2019-05-22T03:09:19.722Z,88.60
2019-05-22T03:11:57.877Z,88.60
2019-05-22T03:14:30.829Z,88.80
2019-05-22T03:17:07.740Z,88.70
2019-05-22T03:19:45.448Z,88.90
2019-05-22T03:22:31.960Z,89.10
2019-05-22T03:25:09.201Z,89.00
2019-05-22T03:27:45.939Z,89.00
2019-05-22T03:30:22.304Z,89.30
2019-05-22T03:32:55.505Z,89.10
2019-05-22T03:35:27.890Z,89.00
2019-05-22T03:38:01.479Z,89.20
2019-05-22T03:40:37.292Z,89.20
2019-05-22T03:43:20.317Z,89.00
2019-05-22T03:45:54.608Z,88.90
2019-05-22T03:48:33.278Z,89.00
2019-05-22T03:51:12.879Z,89.20
2019-05-22T03:53:46.413Z,89.00
2019-05-22T03:56:20.059Z,89.00
2019-05-22T03:58:53.721Z,88.90
2019-05-22T04:01:26.360Z,89.20
2019-05-22T04:03:59.759Z,89.20
2019-05-22T04:06:33.164Z,89.10
2019-05-22T04:09:13.963Z,88.80
2019-05-22T04:11:48.569Z,89.00
2019-05-22T04:14:25.301Z,88.90
2019-05-22T04:17:03.967Z,89.00
2019-05-22T04:19:48.796Z,88.80
2019-05-22T04:22:10.314Z,88.90
2019-05-22T04:24:42.274Z,89.00
2019-05-22T04:27:14.251Z,89.00
2019-05-22T04:29:47.579Z,89.00
2019-05-22T04:32:37.387Z,88.60
2019-05-22T04:35:12.913Z,89.00
2019-05-22T04:37:46.950Z,88.80
2019-05-22T04:40:58.131Z,88.70
2019-05-22T04:43:36.714Z,88.60
2019-05-22T04:46:09.718Z,88.80
2019-05-22T04:48:46.145Z,88.90
2019-05-22T04:51:42.388Z,89.00
2019-05-22T04:54:14.114Z,89.00
2019-05-22T04:56:46.732Z,89.10
2019-05-22T04:59:18.778Z,89.20
2019-05-22T05:01:51.022Z,89.30
2019-05-22T05:04:25.775Z,89.20
2019-05-22T05:06:57.921Z,89.10
2019-05-22T05:09:29.906Z,89.10
2019-05-22T05:12:05.660Z,88.90
2019-05-22T05:14:39.787Z,88.90
2019-05-22T05:17:13.325Z,88.90
2019-05-22T05:19:46.576Z,88.90
2019-05-22T05:22:41.472Z,88.80
2019-05-22T05:25:13.508Z,88.80
2019-05-22T05:27:46.565Z,88.70
2019-05-22T05:30:21.253Z,88.60
2019-05-22T05:32:53.483Z,88.60
2019-05-22T05:35:29.162Z,88.70
2019-05-22T05:38:02.672Z,88.80
2019-05-22T05:40:45.355Z,88.80
2019-05-22T05:43:19.266Z,88.90
2019-05-22T05:45:52.629Z,88.80
2019-05-22T05:48:31.313Z,88.50
2019-05-22T05:51:42.563Z,88.40
2019-05-22T05:54:15.691Z,88.40
2019-05-22T05:56:50.792Z,88.50
2019-05-22T05:59:24.389Z,88.60
2019-05-22T06:02:02.059Z,88.60
2019-05-22T06:04:39.520Z,88.80
2019-05-22T06:07:28.180Z,89.10
2019-05-22T06:10:42.491Z,89.20
2019-05-22T06:13:13.529Z,89.20
2019-05-22T06:16:38.941Z,89.30
2019-05-22T06:19:11.101Z,89.20
2019-05-22T06:21:50.246Z,89.10
2019-05-22T06:24:32.827Z,89.20
2019-05-22T06:27:20.042Z,89.30
2019-05-22T06:29:59.815Z,89.40
2019-05-22T06:33:10.485Z,89.20
2019-05-22T06:35:42.508Z,89.90
2019-05-22T06:38:54.463Z,89.20
2019-05-22T06:41:31.687Z,89.40
2019-05-22T06:44:39.273Z,89.30
2019-05-22T06:47:18.357Z,89.40
2019-05-22T06:49:58.681Z,89.50
2019-05-22T06:52:34.290Z,89.60
2019-05-22T06:55:06.720Z,89.60
2019-05-22T06:58:01.746Z,89.70
2019-05-22T07:00:27.616Z,89.60
2019-05-22T07:03:08.501Z,89.40
2019-05-22T07:05:43.062Z,90.10
2019-05-22T07:08:17.684Z,89.40
2019-05-22T07:10:50.131Z,89.20
2019-05-22T07:13:25.648Z,89.20
2019-05-22T07:16:00.658Z,89.30
2019-05-22T07:18:32.828Z,89.40
2019-05-22T07:21:16.481Z,89.10
2019-05-22T07:23:58.538Z,89.80
2019-05-22T07:26:34.154Z,89.00
2019-05-22T07:29:15.420Z,89.00
2019-05-22T07:31:50.445Z,89.10
2019-05-22T07:34:22.724Z,89.20
2019-05-22T07:36:57.793Z,89.10
2019-05-22T07:39:36.294Z,89.00
2019-05-22T07:42:10.401Z,89.00
2019-05-22T07:44:48.578Z,89.00
2019-05-22T07:47:23.975Z,88.80
2019-05-22T07:49:58.867Z,88.80
2019-05-22T07:52:31.739Z,88.80
2019-05-22T07:55:04.725Z,88.80
2019-05-22T07:57:40.639Z,88.70
2019-05-22T08:00:16.496Z,89.40
2019-05-22T08:02:51.255Z,88.50
2019-05-22T08:05:26.845Z,88.50
2019-05-22T08:07:59.994Z,88.60
2019-05-22T08:10:35.611Z,89.40
2019-05-22T08:13:07.681Z,88.70
2019-05-22T08:15:40.006Z,88.60
2019-05-22T08:18:19.489Z,88.60
2019-05-22T08:20:54.259Z,88.60
2019-05-22T08:23:30.014Z,88.60
2019-05-22T08:26:06.785Z,88.40
2019-05-22T08:28:40.760Z,88.20
2019-05-22T08:31:21.526Z,88.10
2019-05-22T08:33:56.906Z,88.30
2019-05-22T08:36:33.753Z,88.20
2019-05-22T08:39:16.645Z,88.30
2019-05-22T08:41:53.267Z,88.20
2019-05-22T08:44:30.446Z,88.20
2019-05-22T08:47:12.587Z,88.00
2019-05-22T08:49:44.339Z,88.00
2019-05-22T08:52:23.768Z,87.90
2019-05-22T08:55:07.902Z,87.70
2019-05-22T08:57:58.963Z,87.50
2019-05-22T09:00:47.237Z,87.40
2019-05-22T09:06:16.530Z,87.10
2019-05-22T09:08:51.842Z,87.10
2019-05-22T09:11:27.881Z,86.60
2019-05-22T09:14:16.785Z,86.50
2019-05-22T09:16:54.771Z,86.30
2019-05-22T09:19:33.087Z,86.30
2019-05-22T09:22:20.282Z,86.20
2019-05-22T09:25:24.704Z,86.20
2019-05-22T09:31:54.876Z,85.80
2019-05-22T09:34:32.662Z,85.50
2019-05-22T09:38:24.075Z,85.40
2019-05-22T09:40:28.535Z,85.30
2019-05-22T09:43:02.754Z,85.30
2019-05-22T09:45:39.738Z,85.10
2019-05-22T09:48:16.279Z,85.20
2019-05-22T09:50:51.454Z,85.10
2019-05-22T09:53:44.816Z,84.90
2019-05-22T09:56:18.590Z,84.90
2019-05-22T09:58:51.593Z,84.60
2019-05-22T10:01:25.370Z,84.50
2019-05-22T10:04:00.934Z,84.50
2019-05-22T10:06:32.950Z,84.50
2019-05-22T10:09:12.023Z,84.50
2019-05-22T10:11:46.916Z,84.10
2019-05-22T10:14:22.097Z,83.80
2019-05-22T10:16:54.465Z,84.10
2019-05-22T10:19:45.159Z,84.10
2019-05-22T10:22:17.604Z,83.90
2019-05-22T10:25:13.830Z,84.00
2019-05-22T10:27:32.230Z,84.10
2019-05-22T10:30:14.259Z,83.80
2019-05-22T10:33:01.947Z,83.80
2019-05-22T10:35:36.458Z,83.50
2019-05-22T10:38:09.870Z,83.30
2019-05-22T10:40:49.117Z,83.00
2019-05-22T10:43:19.575Z,83.00
2019-05-22T10:45:53.495Z,82.60
2019-05-22T10:48:26.701Z,82.60
2019-05-22T10:51:09.464Z,82.40
2019-05-22T10:53:57.932Z,82.20
2019-05-22T10:56:32.141Z,82.00
2019-05-22T10:59:11.970Z,82.00
2019-05-22T11:01:43.804Z,81.90
2019-05-22T11:04:19.829Z,82.30
2019-05-22T11:06:56.295Z,81.90
2019-05-22T11:09:50.595Z,81.80
2019-05-22T11:12:26.116Z,81.80
2019-05-22T11:15:04.529Z,81.50
2019-05-22T11:17:57.141Z,81.30
2019-05-22T11:20:34.361Z,81.40
2019-05-22T11:23:09.392Z,81.50
2019-05-22T11:25:42.099Z,81.50
2019-05-22T11:28:15.555Z,81.50
2019-05-22T11:30:48.775Z,81.50
2019-05-22T11:33:33.886Z,81.80
2019-05-22T11:36:09.914Z,82.00
2019-05-22T11:38:41.786Z,82.10
2019-05-22T11:41:41.258Z,82.30
2019-05-22T11:44:14.427Z,82.40
2019-05-22T11:46:57.815Z,82.60
2019-05-22T11:49:33.441Z,82.80
2019-05-22T11:52:07.596Z,82.80
2019-05-22T11:54:41.169Z,82.80
2019-05-22T11:57:14.811Z,83.00
2019-05-22T11:59:51.540Z,82.70
2019-05-22T12:02:30.721Z,82.40
2019-05-22T12:05:02.951Z,82.70
2019-05-22T12:07:35.417Z,82.50
2019-05-22T12:10:09.101Z,82.00
2019-05-22T12:12:41.492Z,82.70
2019-05-22T12:15:16.111Z,81.40
2019-05-22T12:17:49.862Z,81.30
2019-05-22T12:20:26.722Z,81.50
2019-05-22T12:23:00.066Z,81.30
2019-05-22T12:25:33.073Z,81.20
2019-05-22T12:31:07.530Z,81.20
2019-05-22T12:33:41.934Z,80.70
2019-05-22T12:36:20.303Z,80.60
2019-05-22T12:39:10.670Z,80.80
2019-05-22T12:41:46.443Z,80.30
2019-05-22T12:44:38.093Z,80.40
2019-05-22T12:47:11.563Z,80.20
2019-05-22T12:49:43.958Z,80.20
2019-05-22T12:52:16.493Z,80.20
2019-05-22T12:54:52.437Z,79.90
2019-05-22T12:57:22.382Z,80.00
2019-05-22T12:59:55.385Z,79.60
2019-05-22T13:02:27.254Z,79.50
2019-05-22T13:05:00.322Z,79.20
2019-05-22T13:07:32.639Z,79.10
2019-05-22T13:10:05.905Z,78.90
2019-05-22T13:12:37.727Z,78.70
2019-05-22T13:15:11.185Z,78.40
2019-05-22T13:17:43.775Z,78.10
2019-05-22T13:20:19.453Z,77.30
2019-05-22T13:22:52.564Z,77.20
2019-05-22T13:25:29.747Z,77.00
2019-05-22T13:28:02.382Z,76.70
2019-05-22T13:30:36.811Z,76.60
2019-05-22T13:33:11.385Z,76.30
2019-05-22T13:35:43.471Z,76.30
2019-05-22T13:38:15.735Z,76.40
2019-05-22T13:40:48.263Z,76.20
2019-05-22T13:43:19.903Z,76.60
2019-05-22T13:45:52.116Z,76.20
2019-05-22T13:48:23.554Z,76.00
2019-05-22T13:50:58.032Z,76.00
2019-05-22T13:53:32.047Z,75.90
2019-05-22T13:56:05.096Z,76.10
2019-05-22T13:58:36.914Z,75.90
2019-05-22T14:01:12.853Z,75.70
2019-05-22T14:03:44.330Z,74.70
2019-05-22T14:06:16.085Z,74.60
2019-05-22T14:08:48.246Z,74.70
2019-05-22T14:11:20.584Z,74.50
2019-05-22T14:13:54.009Z,74.40
2019-05-22T14:16:26.832Z,74.50
2019-05-22T14:18:58.760Z,74.40
2019-05-22T14:21:30.062Z,74.40
2019-05-22T14:24:01.835Z,74.30
2019-05-22T14:26:33.590Z,74.30
2019-05-22T14:29:05.811Z,74.30
2019-05-22T14:31:37.435Z,74.20
2019-05-22T14:34:09.875Z,74.30
2019-05-22T14:36:42.011Z,73.80
2019-05-22T14:39:14.070Z,73.80
2019-05-22T14:41:45.424Z,73.80
2019-05-22T14:44:16.773Z,74.00
2019-05-22T14:46:48.720Z,74.00
2019-05-22T14:49:21.052Z,74.10
2019-05-22T14:51:53.694Z,74.20
2019-05-22T14:54:26.250Z,74.10
2019-05-22T14:56:57.640Z,73.80
2019-05-22T14:59:30.044Z,73.50
2019-05-22T15:02:02.945Z,73.30
2019-05-22T15:04:35.280Z,73.50
2019-05-22T15:07:07.725Z,73.50
2019-05-22T15:09:39.860Z,73.50
2019-05-22T15:12:11.196Z,73.50
2019-05-22T15:14:42.588Z,73.30
2019-05-22T15:17:31.152Z,73.10
2019-05-22T15:19:47.156Z,73.30
2019-05-22T15:22:19.051Z,73.30
2019-05-22T15:24:51.269Z,73.30
2019-05-22T15:27:22.905Z,73.40
2019-05-22T15:29:54.287Z,74.00
2019-05-22T15:32:26.083Z,73.30
2019-05-22T15:34:58.370Z,73.30
2019-05-22T15:37:31.248Z,73.70
2019-05-22T15:40:03.397Z,73.70
2019-05-22T15:42:38.822Z,73.70
2019-05-22T15:45:15.986Z,73.40
2019-05-22T15:47:55.329Z,73.40
2019-05-22T15:50:26.836Z,73.60
2019-05-22T15:53:05.156Z,73.30
2019-05-22T15:55:39.163Z,72.90
2019-05-22T15:58:12.057Z,72.60
2019-05-22T16:00:45.966Z,72.40
2019-05-22T16:03:21.052Z,72.50
2019-05-22T16:05:54.155Z,72.50
2019-05-22T16:08:26.071Z,72.90
2019-05-22T16:11:00.821Z,72.70
2019-05-22T16:13:34.848Z,72.70
2019-05-22T16:16:07.824Z,72.70
2019-05-22T16:18:42.473Z,73.30
2019-05-22T16:21:16.312Z,73.80
2019-05-22T16:23:48.092Z,74.00
2019-05-22T16:26:21.289Z,74.20
2019-05-22T16:28:53.341Z,73.50
2019-05-22T16:31:26.210Z,73.50
2019-05-22T16:33:58.140Z,73.00
2019-05-22T16:36:32.631Z,72.80
2019-05-22T16:39:06.536Z,72.70
2019-05-22T16:41:38.523Z,72.50
2019-05-22T16:44:10.859Z,72.50
2019-05-22T16:46:43.647Z,72.30
2019-05-22T16:49:19.810Z,72.20
2019-05-22T16:51:51.628Z,72.20
2019-05-22T16:54:25.190Z,72.30
2019-05-22T16:56:56.664Z,72.40
2019-05-22T16:59:29.233Z,72.50
2019-05-22T17:02:02.000Z,73.10
2019-05-22T17:04:33.556Z,72.10
2019-05-22T17:07:05.623Z,71.60
2019-05-22T17:09:41.314Z,71.40
2019-05-22T17:12:13.984Z,71.50
2019-05-22T17:14:46.911Z,71.60
2019-05-22T17:17:20.062Z,71.50
2019-05-22T17:19:51.991Z,72.40
2019-05-22T17:22:24.092Z,71.90
2019-05-22T17:24:55.675Z,72.10
2019-05-22T17:27:29.592Z,71.80
2019-05-22T17:30:01.583Z,72.30
2019-05-22T17:32:38.812Z,72.10
2019-05-22T17:35:11.224Z,73.00
2019-05-22T17:37:43.985Z,72.40
2019-05-22T17:40:18.585Z,72.30
2019-05-22T17:42:52.411Z,72.70
2019-05-22T17:45:26.896Z,72.50
2019-05-22T17:47:58.591Z,73.20
2019-05-22T17:50:31.515Z,72.90
2019-05-22T17:53:04.622Z,73.10
2019-05-22T17:55:40.375Z,72.90
2019-05-22T17:58:13.211Z,72.70
2019-05-22T18:00:47.120Z,72.50
2019-05-22T18:03:18.840Z,72.50
2019-05-22T18:05:50.255Z,72.30
2019-05-22T18:08:23.297Z,72.30
2019-05-22T18:10:55.017Z,72.30
2019-05-22T18:13:27.006Z,72.50
2019-05-22T18:15:59.394Z,72.40
2019-05-22T18:18:30.692Z,72.70
2019-05-22T18:21:02.162Z,72.50
2019-05-22T18:23:33.932Z,72.20
2019-05-22T18:26:05.645Z,72.00
2019-05-22T18:28:37.336Z,72.00
2019-05-22T18:31:09.226Z,72.60
2019-05-22T18:33:42.085Z,72.40
2019-05-22T18:36:13.740Z,72.50
2019-05-22T18:38:45.412Z,73.40
2019-05-22T18:41:17.550Z,72.30
2019-05-22T18:43:48.958Z,72.00
2019-05-22T18:46:20.715Z,72.20
2019-05-22T18:48:53.483Z,72.10
2019-05-22T18:51:25.406Z,72.10
2019-05-22T18:53:57.311Z,73.00
2019-05-22T20:38:27.674Z,76.50
2019-05-22T20:40:59.218Z,76.70
2019-05-22T20:43:32.034Z,76.70
2019-05-22T20:46:06.825Z,76.90
2019-05-22T20:48:38.847Z,77.20
2019-05-22T20:51:14.705Z,77.10
2019-05-22T20:53:54.319Z,77.10
2019-05-22T20:56:23.882Z,77.30
2019-05-22T20:58:55.503Z,77.30
2019-05-22T21:01:27.251Z,77.40
2019-05-22T21:04:04.025Z,77.50
2019-05-22T21:06:42.143Z,77.70
2019-05-22T21:09:14.641Z,77.90
2019-05-22T21:11:46.517Z,78.00
2019-05-22T21:14:19.495Z,78.20
2019-05-22T21:16:53.146Z,78.30
2019-05-22T21:19:25.029Z,78.40
2019-05-22T21:21:58.912Z,78.50
2019-05-22T21:24:30.967Z,78.70
2019-05-22T21:27:05.286Z,78.70
2019-05-22T21:29:38.485Z,78.90
2019-05-22T21:32:12.173Z,79.00
2019-05-22T21:34:45.118Z,79.10
2019-05-22T21:37:20.048Z,79.10
2019-05-22T21:39:59.178Z,79.30
2019-05-22T21:42:34.488Z,79.40
2019-05-22T21:45:07.511Z,79.50
2019-05-22T21:47:43.476Z,79.50
2019-05-22T21:50:17.437Z,79.60
2019-05-22T21:52:50.767Z,79.70
2019-05-22T21:55:32.310Z,79.90
2019-05-22T21:58:09.988Z,80.00
2019-05-22T22:01:14.826Z,79.90
2019-05-22T22:03:51.499Z,80.00
2019-05-22T22:06:25.964Z,80.00
2019-05-22T22:09:00.395Z,80.20
2019-05-22T22:11:36.664Z,80.20
2019-05-22T22:14:11.723Z,80.20
2019-05-22T22:16:44.074Z,80.30
2019-05-22T22:19:19.451Z,80.30
2019-05-22T22:21:51.033Z,80.50
2019-05-22T22:24:23.327Z,80.40
2019-05-22T22:26:55.406Z,80.40
2019-05-22T22:29:28.031Z,80.70
2019-05-22T22:32:01.144Z,80.60
2019-05-22T22:34:47.466Z,80.60
2019-05-22T22:37:19.772Z,80.60
2019-05-22T22:39:55.193Z,80.80
2019-05-22T22:42:29.570Z,80.90
2019-05-22T22:45:03.662Z,80.90
2019-05-22T22:47:40.915Z,80.90
2019-05-22T22:50:14.152Z,81.00
2019-05-22T22:52:47.026Z,80.90
2019-05-22T22:55:20.099Z,81.00
2019-05-22T22:57:52.274Z,80.90
2019-05-22T23:00:37.992Z,80.90
2019-05-22T23:03:11.878Z,81.00
2019-05-22T23:05:46.927Z,81.10
2019-05-22T23:08:23.008Z,81.10
2019-05-22T23:10:54.788Z,81.30
2019-05-22T23:13:27.872Z,81.30
2019-05-22T23:16:00.312Z,81.30
2019-05-22T23:19:06.759Z,81.90
2019-05-22T23:21:37.830Z,82.20
2019-05-22T23:24:08.451Z,82.40
2019-05-22T23:26:41.800Z,82.60
2019-05-22T23:29:14.367Z,82.70
2019-05-22T23:31:46.693Z,82.50
2019-05-22T23:34:18.889Z,81.90
2019-05-22T23:36:50.606Z,81.50
2019-05-22T23:39:23.638Z,81.20
2019-05-22T23:41:59.641Z,81.00
2019-05-22T23:44:34.202Z,81.00
2019-05-22T23:47:07.966Z,80.90
2019-05-22T23:49:41.444Z,81.00
2019-05-22T23:52:15.420Z,81.00
2019-05-22T23:54:49.494Z,81.10
2019-05-22T23:57:22.608Z,81.00
2019-05-22T23:59:58.754Z,81.10
